createdAt,value
2022-11-13T00:01:57.921Z,14.27
2022-11-13T00:04:44.178Z,14.57
2022-11-13T00:07:30.604Z,12.90
2022-11-13T00:10:17.071Z,16.33
2022-11-13T00:13:03.347Z,14.50
2022-11-13T00:15:57.285Z,13.88
2022-11-13T00:18:43.884Z,13.82
2022-11-13T00:21:30.388Z,13.95
2022-11-13T00:24:16.604Z,12.68
2022-11-13T00:27:02.890Z,15.45
2022-11-13T00:29:49.283Z,13.73
2022-11-13T00:32:37.798Z,14.40
2022-11-13T00:35:24.015Z,14.60
2022-11-13T00:38:10.385Z,14.25
2022-11-13T00:40:56.640Z,17.27
2022-11-13T00:43:43.349Z,14.50
2022-11-13T00:46:29.337Z,14.38
2022-11-13T00:49:16.354Z,13.48
2022-11-13T00:52:03.511Z,13.68
2022-11-13T00:54:49.913Z,13.43
2022-11-13T00:57:36.361Z,14.20
2022-11-13T01:00:22.836Z,14.23
2022-11-13T01:03:09.529Z,13.60
2022-11-13T01:05:55.382Z,13.65
2022-11-13T01:08:42.270Z,13.30
2022-11-13T01:11:29.441Z,13.25
2022-11-13T01:14:15.669Z,13.38
2022-11-13T01:17:01.978Z,13.77
2022-11-13T01:19:48.438Z,13.20
2022-11-13T01:22:34.660Z,12.13
2022-11-13T01:25:21.045Z,12.70
2022-11-13T01:28:07.204Z,12.10
2022-11-13T01:30:53.443Z,11.93
2022-11-13T01:33:39.968Z,11.75
2022-11-13T01:36:27.995Z,12.57
2022-11-13T01:39:13.959Z,11.57
2022-11-13T01:42:01.284Z,12.88
2022-11-13T01:44:49.452Z,12.05
2022-11-13T01:47:36.577Z,12.75
2022-11-13T01:50:22.853Z,13.02
2022-11-13T01:53:09.197Z,12.50
2022-11-13T01:55:55.394Z,12.57
2022-11-13T01:58:43.157Z,14.30
2022-11-13T02:01:29.867Z,13.30
2022-11-13T02:04:16.124Z,13.48
2022-11-13T02:07:05.008Z,12.70
2022-11-13T02:09:52.524Z,12.85
2022-11-13T02:12:41.514Z,12.40
2022-11-13T02:15:28.585Z,13.98
2022-11-13T02:18:15.676Z,12.20
2022-11-13T02:21:17.502Z,12.13
2022-11-13T02:24:09.972Z,12.32
2022-11-13T02:26:57.445Z,12.40
2022-11-13T02:29:43.494Z,11.80
2022-11-13T02:32:29.775Z,13.30
2022-11-13T02:35:17.878Z,12.90
2022-11-13T02:38:05.497Z,11.60
2022-11-13T02:40:51.913Z,12.32
2022-11-13T02:43:38.196Z,13.27
2022-11-13T02:46:24.474Z,12.98
2022-11-13T02:49:10.848Z,12.13
2022-11-13T02:51:57.108Z,12.07
2022-11-13T02:54:43.393Z,11.93
2022-11-13T02:57:29.832Z,12.25
2022-11-13T03:00:16.269Z,10.90
2022-11-13T03:03:02.791Z,13.15
2022-11-13T03:05:50.414Z,12.02
2022-11-13T03:08:37.126Z,12.52
2022-11-13T03:11:23.575Z,11.82
2022-11-13T03:14:10.314Z,12.57
2022-11-13T03:16:56.878Z,12.60
2022-11-13T03:19:43.171Z,12.00
2022-11-13T03:22:29.531Z,13.82
2022-11-13T03:25:15.878Z,13.35
2022-11-13T03:28:02.349Z,11.80
2022-11-13T03:30:48.820Z,13.38
2022-11-13T03:33:34.972Z,12.82
2022-11-13T03:36:22.730Z,11.93
2022-11-13T03:39:08.764Z,12.52
2022-11-13T03:41:55.061Z,13.07
2022-11-13T03:44:41.336Z,12.02
2022-11-13T03:47:27.774Z,12.00
2022-11-13T03:50:14.117Z,12.18
2022-11-13T03:52:59.955Z,13.15
2022-11-13T03:55:47.223Z,12.70
2022-11-13T03:58:34.112Z,12.00
2022-11-13T04:01:22.335Z,13.48
2022-11-13T04:04:08.830Z,14.60
2022-11-13T04:06:55.228Z,11.60
2022-11-13T04:09:41.561Z,13.43
2022-11-13T04:12:28.016Z,11.93
2022-11-13T04:15:14.300Z,12.57
2022-11-13T04:18:00.774Z,12.93
2022-11-13T04:20:47.242Z,12.95
2022-11-13T04:23:33.541Z,11.55
2022-11-13T04:26:19.928Z,11.23
2022-11-13T04:29:06.382Z,11.65
2022-11-13T04:31:52.212Z,12.23
2022-11-13T04:34:38.677Z,12.50
2022-11-13T04:37:25.062Z,12.38
2022-11-13T04:40:11.753Z,12.43
2022-11-13T04:42:58.036Z,12.23
2022-11-13T04:45:44.407Z,11.38
2022-11-13T04:48:30.959Z,12.02
2022-11-13T04:51:17.188Z,13.43
2022-11-13T04:54:03.448Z,11.60
2022-11-13T04:56:50.192Z,11.85
2022-11-13T04:59:36.659Z,12.57
2022-11-13T05:02:23.298Z,11.27
2022-11-13T05:05:09.661Z,11.20
2022-11-13T05:07:56.237Z,11.15
2022-11-13T05:10:42.643Z,11.68
2022-11-13T05:13:31.838Z,11.43
2022-11-13T05:16:18.028Z,9.98
2022-11-13T05:19:07.303Z,11.27
2022-11-13T05:21:53.402Z,10.65
2022-11-13T05:24:39.811Z,10.10
2022-11-13T05:27:26.367Z,11.07
2022-11-13T05:30:12.848Z,9.68
2022-11-13T05:32:59.147Z,10.48
2022-11-13T05:35:45.505Z,11.10
2022-11-13T05:38:31.992Z,11.65
2022-11-13T05:41:19.324Z,10.10
2022-11-13T05:44:05.491Z,9.68
2022-11-13T05:46:51.765Z,10.48
2022-11-13T05:49:38.174Z,11.13
2022-11-13T05:52:24.463Z,10.25
2022-11-13T05:55:10.739Z,9.80
2022-11-13T05:57:59.125Z,10.38
2022-11-13T06:00:45.227Z,9.68
2022-11-13T06:03:31.472Z,9.93
2022-11-13T06:06:19.256Z,9.45
2022-11-13T06:09:06.480Z,10.50
2022-11-13T06:11:52.720Z,10.38
2022-11-13T06:14:39.089Z,11.35
2022-11-13T06:17:25.506Z,10.43
2022-11-13T06:20:11.814Z,9.10
2022-11-13T06:22:58.961Z,9.63
2022-11-13T06:25:45.192Z,9.65
2022-11-13T06:28:32.982Z,8.73
2022-11-13T06:31:20.950Z,9.52
2022-11-13T06:34:07.413Z,9.95
2022-11-13T06:36:53.513Z,8.98
2022-11-13T06:39:39.958Z,9.70
2022-11-13T06:42:26.395Z,9.25
2022-11-13T06:45:12.222Z,9.98
2022-11-13T06:47:58.656Z,9.48
2022-11-13T06:50:48.424Z,9.30
2022-11-13T06:53:35.163Z,9.23
2022-11-13T06:56:21.692Z,10.07
2022-11-13T06:59:08.700Z,9.07
2022-11-13T07:01:54.940Z,8.73
2022-11-13T07:04:41.279Z,9.50
2022-11-13T07:07:27.971Z,9.45
2022-11-13T07:10:14.180Z,8.93
2022-11-13T07:13:00.918Z,8.77
2022-11-13T07:15:47.120Z,8.43
2022-11-13T07:18:33.890Z,8.90
2022-11-13T07:21:20.495Z,8.55
2022-11-13T07:24:06.853Z,8.30
2022-11-13T07:26:52.960Z,9.20
2022-11-13T07:29:39.350Z,8.82
2022-11-13T07:32:25.662Z,8.07
2022-11-13T07:35:12.072Z,7.43
2022-11-13T07:37:59.310Z,8.35
2022-11-13T07:40:45.445Z,7.22
2022-11-13T07:43:31.936Z,7.47
2022-11-13T07:46:18.084Z,8.23
2022-11-13T07:49:04.510Z,10.02
2022-11-13T07:51:52.084Z,8.15
2022-11-13T07:54:38.182Z,8.13
2022-11-13T07:57:24.735Z,7.20
2022-11-13T08:00:14.326Z,7.50
2022-11-13T08:03:04.811Z,7.57
2022-11-13T08:05:50.879Z,8.25
2022-11-13T08:08:37.409Z,7.15
2022-11-13T08:11:23.828Z,6.53
2022-11-13T08:17:16.012Z,6.65
2022-11-13T08:20:06.615Z,7.10
2022-11-13T08:22:53.058Z,7.00
2022-11-13T08:28:45.998Z,6.75
2022-11-13T08:31:36.209Z,5.97
2022-11-13T08:34:30.528Z,7.47
2022-11-13T08:37:31.861Z,7.50
2022-11-13T08:40:26.091Z,6.43
2022-11-13T08:43:12.569Z,7.78
2022-11-13T08:45:59.212Z,7.28
2022-11-13T08:48:55.093Z,6.78
2022-11-13T08:51:50.822Z,6.95
2022-11-13T08:54:52.491Z,6.65
2022-11-13T08:58:12.964Z,6.15
2022-11-13T09:04:10.093Z,7.45
2022-11-13T09:10:01.181Z,6.63
2022-11-13T09:12:47.471Z,7.28
2022-11-13T09:15:33.975Z,8.02
2022-11-13T09:18:20.253Z,7.35
2022-11-13T09:21:06.784Z,7.68
2022-11-13T09:23:53.226Z,6.78
2022-11-13T09:26:39.358Z,6.30
2022-11-13T09:29:27.041Z,7.15
2022-11-13T09:32:13.013Z,7.28
2022-11-13T09:34:59.102Z,7.63
2022-11-13T09:37:45.262Z,6.20
2022-11-13T09:40:36.419Z,5.95
2022-11-13T09:43:28.107Z,6.70
2022-11-13T09:46:20.561Z,6.28
2022-11-13T09:49:09.936Z,6.38
2022-11-13T09:51:59.791Z,6.20
2022-11-13T09:54:49.093Z,5.82
2022-11-13T09:57:47.114Z,5.38
2022-11-13T10:00:34.861Z,5.70
2022-11-13T10:06:41.045Z,5.80
2022-11-13T10:09:43.878Z,6.90
2022-11-13T10:12:31.781Z,6.03
2022-11-13T10:15:18.203Z,6.32
2022-11-13T10:18:12.301Z,6.30
2022-11-13T10:21:05.541Z,7.30
2022-11-13T10:23:56.539Z,6.18
2022-11-13T10:29:47.777Z,5.05
2022-11-13T10:32:36.903Z,6.03
2022-11-13T10:35:36.894Z,6.25
2022-11-13T10:38:34.334Z,5.18
2022-11-13T10:41:21.874Z,5.97
2022-11-13T10:44:20.123Z,8.70
2022-11-13T10:47:13.079Z,7.13
2022-11-13T10:50:10.420Z,6.25
2022-11-13T10:52:57.305Z,5.50
2022-11-13T10:55:43.740Z,6.43
2022-11-13T10:58:30.431Z,6.32
2022-11-13T11:01:23.168Z,6.68
2022-11-13T11:04:27.529Z,5.78
2022-11-13T11:07:20.987Z,5.40
2022-11-13T11:10:26.216Z,4.88
2022-11-13T11:13:13.931Z,5.38
2022-11-13T11:16:02.103Z,5.30
2022-11-13T11:18:55.541Z,4.63
2022-11-13T11:21:50.279Z,5.60
2022-11-13T11:24:39.527Z,5.38
2022-11-13T11:27:43.329Z,4.97
2022-11-13T11:30:32.502Z,4.65
2022-11-13T11:33:40.565Z,4.47
2022-11-13T11:36:35.241Z,4.63
2022-11-13T11:39:24.899Z,4.88
2022-11-13T11:42:16.421Z,4.15
2022-11-13T11:45:05.277Z,4.90
2022-11-13T11:47:53.340Z,4.50
2022-11-13T11:50:42.507Z,4.25
2022-11-13T11:53:47.777Z,4.22
2022-11-13T11:59:57.812Z,3.85
2022-11-13T12:03:11.423Z,4.47
2022-11-13T12:06:11.168Z,3.80
2022-11-13T12:09:03.819Z,3.85
2022-11-13T12:12:05.018Z,3.38
2022-11-13T12:15:03.662Z,3.67
2022-11-13T12:17:58.273Z,4.32
2022-11-13T12:21:00.295Z,4.95
2022-11-13T12:23:49.902Z,3.78
2022-11-13T12:26:42.652Z,3.92
2022-11-13T12:29:37.870Z,3.70
2022-11-13T12:32:24.118Z,3.83
2022-11-13T12:35:13.762Z,3.58
2022-11-13T12:38:35.593Z,3.70
2022-11-13T12:41:31.824Z,3.63
2022-11-13T12:44:24.276Z,3.63
2022-11-13T12:50:43.795Z,4.53
2022-11-13T12:53:31.458Z,3.15
2022-11-13T12:56:30.496Z,4.30
2022-11-13T12:59:35.836Z,3.67
2022-11-13T13:02:42.825Z,4.93
2022-11-13T13:05:47.311Z,4.15
2022-11-13T13:08:36.759Z,3.80
2022-11-13T13:11:41.820Z,3.53
2022-11-13T13:14:42.569Z,4.20
2022-11-13T13:17:28.695Z,4.47
2022-11-13T13:20:21.099Z,4.57
2022-11-13T13:23:11.073Z,5.25
2022-11-13T13:26:05.065Z,4.55
2022-11-13T13:28:55.708Z,5.28
2022-11-13T13:31:49.165Z,5.03
2022-11-13T13:34:55.614Z,4.97
2022-11-13T13:37:49.725Z,4.68
2022-11-13T13:40:53.388Z,5.82
2022-11-13T13:43:51.707Z,4.55
2022-11-13T13:46:38.211Z,5.47
2022-11-13T13:49:25.218Z,5.93
2022-11-13T13:52:15.648Z,4.85
2022-11-13T13:55:03.370Z,5.18
2022-11-13T13:57:49.922Z,4.90
2022-11-13T14:04:10.166Z,5.65
2022-11-13T14:07:00.116Z,5.25
2022-11-13T14:09:46.201Z,5.38
2022-11-13T14:12:32.589Z,5.30
2022-11-13T14:15:18.848Z,5.05
2022-11-13T14:18:06.146Z,5.40
2022-11-13T14:20:53.571Z,4.88
2022-11-13T14:24:00.128Z,4.45
2022-11-13T14:26:46.359Z,3.97
2022-11-13T14:29:32.832Z,4.63
2022-11-13T14:32:22.216Z,4.22
2022-11-13T14:35:09.665Z,4.65
2022-11-13T14:37:56.245Z,4.82
2022-11-13T14:40:48.121Z,4.70
2022-11-13T14:43:34.780Z,4.38
2022-11-13T14:46:29.027Z,5.53
2022-11-13T14:49:15.618Z,4.95
2022-11-13T14:52:03.568Z,5.45
2022-11-13T14:55:14.863Z,4.80
2022-11-13T14:58:02.043Z,5.00
2022-11-13T15:00:51.616Z,5.25
2022-11-13T15:03:38.121Z,4.22
2022-11-13T15:06:26.033Z,4.32
2022-11-13T15:09:13.500Z,4.28
2022-11-13T15:12:01.316Z,4.82
2022-11-13T15:14:47.331Z,4.20
2022-11-13T15:17:37.183Z,4.50
2022-11-13T15:20:27.990Z,5.13
2022-11-13T15:23:40.934Z,5.00
2022-11-13T15:29:13.128Z,4.05
2022-11-13T15:31:59.365Z,4.20
2022-11-13T15:37:45.816Z,4.30
2022-11-13T15:40:32.158Z,4.07
2022-11-13T15:43:20.600Z,4.68
2022-11-13T15:46:14.745Z,4.63
2022-11-13T15:52:05.297Z,5.20
2022-11-13T15:54:53.721Z,5.35
2022-11-13T15:57:43.587Z,8.23
2022-11-13T16:00:29.899Z,7.30
2022-11-13T16:06:18.012Z,4.95
2022-11-13T16:09:06.415Z,7.68
2022-11-13T16:11:52.762Z,6.40
2022-11-13T16:14:40.360Z,5.20
2022-11-13T16:17:27.076Z,6.45
2022-11-13T16:20:16.759Z,5.75
2022-11-13T16:23:03.120Z,5.05
2022-11-13T16:25:50.319Z,4.72
2022-11-13T16:28:52.698Z,5.00
2022-11-13T16:31:43.169Z,4.68
2022-11-13T16:34:31.158Z,5.10
2022-11-13T16:37:18.883Z,5.68
2022-11-13T16:40:11.748Z,5.60
2022-11-13T16:42:57.999Z,5.30
2022-11-13T16:45:44.320Z,6.07
2022-11-13T16:48:30.615Z,6.00
2022-11-13T16:51:17.559Z,5.75
2022-11-13T16:54:05.610Z,5.82
2022-11-13T16:56:51.741Z,6.47
2022-11-13T16:59:38.557Z,6.00
2022-11-13T17:02:24.634Z,6.10
2022-11-13T17:05:15.198Z,6.15
2022-11-13T17:08:01.918Z,5.30
2022-11-13T17:10:56.876Z,6.88
2022-11-13T17:13:43.392Z,5.38
2022-11-13T17:16:31.098Z,5.90
2022-11-13T17:19:17.084Z,5.70
2022-11-13T17:22:03.364Z,5.78
2022-11-13T17:24:52.537Z,6.47
2022-11-13T17:27:38.543Z,5.82
2022-11-13T17:30:25.797Z,5.57
2022-11-13T17:33:19.704Z,6.90
2022-11-13T17:36:06.143Z,6.60
2022-11-13T17:38:52.640Z,5.72
2022-11-13T17:41:39.299Z,6.47
2022-11-13T17:44:25.475Z,7.45
2022-11-13T17:47:15.685Z,7.68
2022-11-13T17:53:13.270Z,6.35
2022-11-13T17:56:02.433Z,6.20
2022-11-13T17:58:49.069Z,6.38
2022-11-13T18:01:35.355Z,6.22
2022-11-13T18:04:31.360Z,6.90
2022-11-13T18:10:17.842Z,6.78
2022-11-13T18:13:10.339Z,6.43
2022-11-13T18:15:56.608Z,6.93
2022-11-13T18:18:43.091Z,7.07
2022-11-13T18:24:39.959Z,7.15
2022-11-13T18:27:27.989Z,8.15
2022-11-13T18:30:14.578Z,7.35
2022-11-13T18:33:04.738Z,7.63
2022-11-13T18:35:51.034Z,7.50
2022-11-13T18:38:40.611Z,7.90
2022-11-13T18:41:27.135Z,7.47
2022-11-13T18:44:13.959Z,7.45
2022-11-13T18:47:00.132Z,8.15
2022-11-13T18:49:46.725Z,7.47
2022-11-13T18:52:41.817Z,7.60
2022-11-13T18:55:28.230Z,6.65
2022-11-13T18:58:14.568Z,8.85
2022-11-13T19:01:20.472Z,8.05
2022-11-13T19:04:25.177Z,8.88
2022-11-13T19:07:12.262Z,9.32
2022-11-13T19:12:58.777Z,7.75
2022-11-13T19:19:03.849Z,8.63
2022-11-13T19:22:18.821Z,8.82
2022-11-13T19:25:05.145Z,8.90
2022-11-13T19:28:05.621Z,9.35
2022-11-13T19:34:32.041Z,9.98
2022-11-13T19:40:24.969Z,9.25
2022-11-13T19:43:21.545Z,9.82
2022-11-13T19:46:10.256Z,9.15
2022-11-13T19:48:56.969Z,9.75
2022-11-13T19:51:43.309Z,10.38
2022-11-13T19:54:31.735Z,10.45
2022-11-13T19:57:17.774Z,9.48
2022-11-13T20:00:05.404Z,8.63
2022-11-13T20:02:51.423Z,10.88
2022-11-13T20:05:41.038Z,10.35
2022-11-13T20:08:28.369Z,10.40
2022-11-13T20:11:16.487Z,9.52
2022-11-13T20:14:02.709Z,10.93
2022-11-13T20:16:49.090Z,10.43
2022-11-13T20:19:35.818Z,10.40
2022-11-13T20:22:29.557Z,10.93
2022-11-13T20:25:16.009Z,10.63
2022-11-13T20:28:04.361Z,10.13
2022-11-13T20:30:51.586Z,10.93
2022-11-13T20:33:39.896Z,10.60
2022-11-13T20:36:27.663Z,10.20
2022-11-13T20:39:15.886Z,10.80
2022-11-13T20:42:02.309Z,9.38
2022-11-13T20:44:50.572Z,10.60
2022-11-13T20:47:37.682Z,11.60
2022-11-13T20:53:24.284Z,10.30
2022-11-13T20:56:16.583Z,10.23
2022-11-13T20:59:04.214Z,10.07
2022-11-13T21:01:50.791Z,10.27
2022-11-13T21:04:38.521Z,10.25
2022-11-13T21:07:24.972Z,9.90
2022-11-13T21:10:14.848Z,11.10
2022-11-13T21:13:05.810Z,10.68
2022-11-13T21:15:52.155Z,10.15
2022-11-13T21:18:38.787Z,10.30
2022-11-13T21:21:26.702Z,9.90
2022-11-13T21:24:14.670Z,11.95
2022-11-13T21:27:01.052Z,11.38
2022-11-13T21:29:47.562Z,10.60
2022-11-13T21:32:33.914Z,11.15
2022-11-13T21:35:22.614Z,10.07
2022-11-13T21:38:08.972Z,11.07
2022-11-13T21:41:19.147Z,9.93
2022-11-13T21:44:07.902Z,10.68
2022-11-13T21:47:37.973Z,11.23
2022-11-13T21:50:24.381Z,11.95
2022-11-13T21:53:12.505Z,10.60
2022-11-13T21:55:59.213Z,11.00
2022-11-13T21:58:45.579Z,12.40
2022-11-13T22:01:38.166Z,10.25
2022-11-13T22:04:25.344Z,11.35
2022-11-13T22:07:11.677Z,11.52
2022-11-13T22:09:58.031Z,11.88
2022-11-13T22:12:44.410Z,10.70
2022-11-13T22:15:30.984Z,10.77
2022-11-13T22:18:17.426Z,11.90
2022-11-13T22:21:04.909Z,11.43
2022-11-13T22:23:51.570Z,12.02
2022-11-13T22:26:39.961Z,10.98
2022-11-13T22:29:31.135Z,10.70
2022-11-13T22:32:28.022Z,11.70
2022-11-13T22:35:14.972Z,11.45
2022-11-13T22:38:02.933Z,11.80
2022-11-13T22:40:49.473Z,12.20
2022-11-13T22:43:40.261Z,11.73
2022-11-13T22:46:27.614Z,11.35
2022-11-13T22:49:14.092Z,10.30
2022-11-13T22:52:00.196Z,11.07
2022-11-13T22:54:46.645Z,11.07
2022-11-13T22:57:33.630Z,11.48
2022-11-13T23:00:20.552Z,11.63
2022-11-13T23:03:07.363Z,11.68
2022-11-13T23:05:53.519Z,12.32
2022-11-13T23:08:40.633Z,11.98
2022-11-13T23:11:28.318Z,12.80
2022-11-13T23:14:17.342Z,12.80
2022-11-13T23:17:03.698Z,13.40
2022-11-13T23:19:50.240Z,12.80
2022-11-13T23:22:36.843Z,12.68
2022-11-13T23:25:23.089Z,12.48
2022-11-13T23:28:09.640Z,13.07
2022-11-13T23:30:56.294Z,13.50
2022-11-13T23:33:42.621Z,13.35
2022-11-13T23:36:30.561Z,13.43
2022-11-13T23:39:16.973Z,13.15
2022-11-13T23:42:03.781Z,13.18
2022-11-13T23:44:49.980Z,12.95
2022-11-13T23:47:37.149Z,13.65
2022-11-13T23:50:23.264Z,15.35
2022-11-13T23:53:10.054Z,14.48
2022-11-13T23:55:56.342Z,14.20
2022-11-13T23:58:42.856Z,13.20
